Time;durP1;ratioP1;P1;durP2;ratioP2;P2;SDS_P1;SDS_P2;PMS_P1;PMS_P2;Temp;Humidity;BMP_temperature;BMP_pressure;BME280_temperature;BME280_humidity;BME280_pressure;Samples;Min_cycle;Max_cycle;Signal;HPM_P1;HPM_P2
2022/01/29 00:00:16;;;;;;;;;;;;;;;5.36;77.81;102364.97;5028476;27;20009;-71
2022/01/29 00:02:41;;;;;;;;;;;;;;;5.33;78.30;102368.63;5004948;27;20108;-67
2022/01/29 00:05:07;;;;;;;;;;;;;;;5.34;78.01;102367.69;5031264;27;20017;-67
2022/01/29 00:07:33;;;;;;;;;;;;;;;5.19;78.54;102378.78;5033334;27;20138;-70
2022/01/29 00:10:03;;;;;;;;;;;;;;;5.27;78.67;102368.84;5022602;27;20247;-68
2022/01/29 00:12:28;;;;;;;;;;;;;;;5.27;78.35;102368.84;5028428;27;20513;-71
2022/01/29 00:14:54;;;;;;;;;;;;;;;5.36;78.90;102368.47;5005602;27;20812;-71
2022/01/29 00:17:19;;;;;;;;;;;;;;;5.40;78.05;102370.06;5010746;27;19903;-71
2022/01/29 00:19:44;;;;;;;;;;;;;;;5.36;78.33;102363.22;5031008;27;19904;-70
2022/01/29 00:22:09;;;;;;;;;;;;;;;5.37;78.35;102374.56;5046649;27;19915;-69
2022/01/29 00:24:34;;;;;;;;;;;;;;;5.31;78.18;102373.06;5054028;27;19971;-67
2022/01/29 00:27:02;;;;;;;;;;;;;;;5.32;78.38;102362.50;5044317;27;19944;-67
2022/01/29 00:29:28;;;;;;;;;;;;;;;5.48;77.69;102357.44;5018345;27;20610;-68
2022/01/29 00:31:53;;;;;;;;;;;;;;;5.33;77.34;102348.47;5024310;27;19992;-72
2022/01/29 00:34:18;;;;;;;;;;;;;;;5.42;77.49;102338.50;5029204;27;20012;-71
2022/01/29 00:36:43;;;;;;;;;;;;;;;5.39;77.97;102334.22;5014103;27;19911;-67
2022/01/29 00:39:09;;;;;;;;;;;;;;;5.38;77.41;102329.88;5029063;27;20354;-68
2022/01/29 00:41:34;;;;;;;;;;;;;;;5.38;78.08;102329.88;5012917;27;19945;-69
2022/01/29 00:43:59;;;;;;;;;;;;;;;5.42;77.92;102331.47;5012917;27;20186;-69
2022/01/29 00:46:24;;;;;;;;;;;;;;;5.39;78.32;102333.38;5008949;27;19919;-68
2022/01/29 00:48:50;;;;;;;;;;;;;;;5.47;77.76;102323.38;5010315;27;19911;-70
2022/01/29 00:51:15;;;;;;;;;;;;;;;5.48;78.05;102335.59;5022190;27;19933;-70
2022/01/29 00:53:40;;;;;;;;;;;;;;;5.50;77.61;102332.00;5027032;27;19922;-70
2022/01/29 00:56:07;;;;;;;;;;;;;;;5.48;78.00;102328.56;5048116;27;19904;-67
2022/01/29 00:58:32;;;;;;;;;;;;;;;5.73;77.14;102324.06;5051427;27;19911;-69
2022/01/29 01:00:58;;;;;;;;;;;;;;;5.73;76.73;102335.41;5051675;27;20134;-71
2022/01/29 01:03:23;;;;;;;;;;;;;;;5.74;77.09;102325.75;5029693;27;19907;-71
2022/01/29 01:05:48;;;;;;;;;;;;;;;5.62;77.59;102329.78;5052830;27;20007;-71
2022/01/29 01:08:14;;;;;;;;;;;;;;;5.77;77.70;102321.25;5048490;27;20001;-69
2022/01/29 01:10:39;;;;;;;;;;;;;;;5.75;78.12;102311.72;5031597;27;20089;-68
2022/01/29 01:13:04;;;;;;;;;;;;;;;5.78;77.88;102311.56;5046178;27;20544;-67
2022/01/29 01:15:29;;;;;;;;;;;;;;;5.75;78.09;102312.56;5011065;27;19918;-69
2022/01/29 01:17:55;;;;;;;;;;;;;;;5.66;78.63;102302.47;5008913;27;20146;-69
2022/01/29 01:20:20;;;;;;;;;;;;;;;5.68;78.63;102303.25;5018668;27;19912;-68
2022/01/29 01:22:45;;;;;;;;;;;;;;;5.65;78.93;102300.75;5031073;27;20019;-72
2022/01/29 01:25:10;;;;;;;;;;;;;;;5.63;79.58;102292.09;5009232;27;19908;-69
2022/01/29 01:27:36;;;;;;;;;;;;;;;5.64;79.56;102293.78;5030686;27;19907;-69
2022/01/29 01:30:01;;;;;;;;;;;;;;;5.73;79.19;102289.94;5030904;27;20897;-67
2022/01/29 01:32:27;;;;;;;;;;;;;;;5.76;78.83;102282.75;5048226;27;19923;-70
2022/01/29 01:34:55;;;;;;;;;;;;;;;5.83;78.82;102281.56;5009306;27;20120;-70
2022/01/29 01:37:34;;;;;;;;;;;;;;;5.91;78.54;102275.09;5008577;27;19956;-68
2022/01/29 01:39:59;;;;;;;;;;;;;;;5.78;79.14;102274.81;5029048;27;20322;-68
2022/01/29 01:42:25;;;;;;;;;;;;;;;5.80;78.75;102279.06;5009755;27;19960;-69
2022/01/29 01:44:52;;;;;;;;;;;;;;;5.98;78.50;102281.84;5024389;27;20369;-72
2022/01/29 01:47:17;;;;;;;;;;;;;;;5.82;78.58;102266.72;5029603;27;20052;-72
2022/01/29 01:49:42;;;;;;;;;;;;;;;5.88;78.92;102260.34;5032259;27;19911;-69
2022/01/29 01:52:10;;;;;;;;;;;;;;;6.09;78.14;102247.19;5030129;27;19927;-68
2022/01/29 01:54:35;;;;;;;;;;;;;;;5.98;78.01;102255.56;5013144;27;20765;-70
2022/01/29 01:57:01;;;;;;;;;;;;;;;5.91;78.24;102244.44;5019425;27;19907;-69
2022/01/29 01:59:26;;;;;;;;;;;;;;;5.91;78.86;102252.31;5032798;27;19915;-68
2022/01/29 02:01:52;;;;;;;;;;;;;;;5.90;78.65;102237.47;5030327;27;20318;-66
2022/01/29 02:04:17;;;;;;;;;;;;;;;5.91;78.69;102227.81;5013117;27;19914;-67
2022/01/29 02:06:42;;;;;;;;;;;;;;;5.99;78.47;102207.31;5030507;27;20407;-68
2022/01/29 02:09:07;;;;;;;;;;;;;;;6.01;78.33;102203.72;5029840;27;19948;-69
2022/01/29 02:11:33;;;;;;;;;;;;;;;6.00;78.23;102199.38;5029367;27;20023;-68
2022/01/29 02:14:00;;;;;;;;;;;;;;;5.93;78.93;102208.44;5012555;27;19911;-69
2022/01/29 02:16:27;;;;;;;;;;;;;;;6.02;78.59;102188.78;5049734;27;19903;-68
2022/01/29 02:18:53;;;;;;;;;;;;;;;5.88;78.68;102194.69;5029247;27;20219;-69
2022/01/29 02:21:18;;;;;;;;;;;;;;;5.89;78.70;102187.63;5028770;27;19911;-68
2022/01/29 02:23:43;;;;;;;;;;;;;;;6.26;77.59;102191.19;5029904;27;19986;-68
2022/01/29 02:26:08;;;;;;;;;;;;;;;6.11;77.82;102191.00;5032409;27;19907;-67
2022/01/29 02:28:34;;;;;;;;;;;;;;;6.24;77.50;102182.53;5032879;27;19948;-68
2022/01/29 02:31:02;;;;;;;;;;;;;;;6.13;77.72;102175.16;5029388;27;20031;-69
2022/01/29 02:33:28;;;;;;;;;;;;;;;6.03;78.37;102174.72;5030968;27;19911;-70
2022/01/29 02:35:53;;;;;;;;;;;;;;;6.08;77.86;102156.13;5029457;27;19907;-69
2022/01/29 02:38:20;;;;;;;;;;;;;;;6.00;78.32;102175.72;5029948;27;19911;-69
2022/01/29 02:40:50;;;;;;;;;;;;;;;6.06;78.42;102164.06;5010194;27;20834;-72
2022/01/29 02:43:17;;;;;;;;;;;;;;;6.03;78.55;102158.97;5024064;27;20770;-68
2022/01/29 02:45:43;;;;;;;;;;;;;;;6.01;78.55;102147.69;5007072;28;20254;-67
2022/01/29 02:48:08;;;;;;;;;;;;;;;6.13;78.19;102149.72;4992164;28;20276;-69
2022/01/29 02:50:34;;;;;;;;;;;;;;;6.05;78.42;102154.50;5032699;27;19923;-69
2022/01/29 02:52:59;;;;;;;;;;;;;;;6.07;78.73;102144.75;5029573;27;19971;-67
2022/01/29 02:55:24;;;;;;;;;;;;;;;6.11;78.19;102135.81;5034781;27;19907;-68
2022/01/29 02:57:49;;;;;;;;;;;;;;;6.03;78.41;102145.81;5029340;27;19919;-72
2022/01/29 03:00:15;;;;;;;;;;;;;;;6.04;78.99;102137.03;5008531;28;20124;-70
2022/01/29 03:02:40;;;;;;;;;;;;;;;6.13;78.73;102133.94;5008275;28;19907;-69
2022/01/29 03:05:05;;;;;;;;;;;;;;;6.11;78.71;102124.47;5028120;28;19908;-69
2022/01/29 03:07:31;;;;;;;;;;;;;;;6.05;79.34;102117.72;5026438;28;19908;-71
2022/01/29 03:09:56;;;;;;;;;;;;;;;5.99;79.81;102113.59;5032921;27;19912;-68
2022/01/29 03:12:21;;;;;;;;;;;;;;;5.96;79.97;102099.72;5027457;28;20023;-67
2022/01/29 03:14:46;;;;;;;;;;;;;;;6.07;79.99;102086.94;5027632;28;20031;-71
2022/01/29 03:17:12;;;;;;;;;;;;;;;6.01;80.26;102097.75;5024832;27;19911;-67
2022/01/29 03:19:37;;;;;;;;;;;;;;;6.14;80.16;102098.03;5017667;28;19908;-68
2022/01/29 03:22:02;;;;;;;;;;;;;;;5.92;81.21;102109.53;5025159;27;19982;-69
2022/01/29 03:24:28;;;;;;;;;;;;;;;5.98;81.75;102096.13;5028182;27;19915;-70
2022/01/29 03:26:53;;;;;;;;;;;;;;;6.10;81.74;102099.94;5048819;27;20007;-69
2022/01/29 03:29:18;;;;;;;;;;;;;;;5.91;82.63;102102.56;5029645;27;19912;-66
2022/01/29 03:31:43;;;;;;;;;;;;;;;6.05;83.09;102106.34;5029700;27;19992;-66
2022/01/29 03:34:08;;;;;;;;;;;;;;;5.98;83.41;102113.69;5047817;27;20422;-71
2022/01/29 03:36:34;;;;;;;;;;;;;;;6.01;83.96;102103.84;5028928;27;19922;-71
2022/01/29 03:39:00;;;;;;;;;;;;;;;5.95;83.91;102087.50;5058322;27;19903;-70
2022/01/29 03:41:25;;;;;;;;;;;;;;;5.91;83.82;102092.06;5053434;27;19911;-70
2022/01/29 03:43:53;;;;;;;;;;;;;;;6.03;84.25;102102.94;5050937;27;19993;-69
2022/01/29 03:46:18;;;;;;;;;;;;;;;6.01;84.18;102105.66;5048549;27;20477;-70
2022/01/29 03:48:43;;;;;;;;;;;;;;;5.94;84.38;102088.44;5050835;27;19903;-69
2022/01/29 03:51:08;;;;;;;;;;;;;;;5.89;85.09;102080.75;5031575;27;19984;-70
2022/01/29 03:53:33;;;;;;;;;;;;;;;5.98;84.47;102087.41;5024245;27;19968;-70
2022/01/29 03:55:59;;;;;;;;;;;;;;;5.92;84.61;102082.41;5048607;27;20036;-70
2022/01/29 03:58:24;;;;;;;;;;;;;;;6.01;84.42;102074.94;5032673;27;19907;-67
2022/01/29 04:00:49;;;;;;;;;;;;;;;6.07;84.11;102086.94;5032154;27;19899;-71
2022/01/29 04:03:14;;;;;;;;;;;;;;;5.91;84.46;102086.81;5032230;27;20180;-68
2022/01/29 04:05:40;;;;;;;;;;;;;;;5.97;84.73;102077.78;5015630;27;20544;-71
2022/01/29 04:08:12;;;;;;;;;;;;;;;5.92;84.99;102075.38;5014766;27;20145;-71
2022/01/29 04:10:38;;;;;;;;;;;;;;;5.86;85.33;102073.03;5019087;27;19919;-68
2022/01/29 04:13:03;;;;;;;;;;;;;;;5.76;86.72;102077.88;5006916;27;20079;-70
2022/01/29 04:15:28;;;;;;;;;;;;;;;5.73;87.31;102075.41;5039334;27;20037;-65
2022/01/29 04:17:54;;;;;;;;;;;;;;;5.72;87.94;102071.06;5016106;27;20359;-70
2022/01/29 04:20:20;;;;;;;;;;;;;;;5.67;88.04;102062.56;5032893;27;20016;-70
2022/01/29 04:22:45;;;;;;;;;;;;;;;5.76;87.42;102056.84;5014330;27;20036;-71
2022/01/29 04:25:10;;;;;;;;;;;;;;;5.68;87.78;102053.75;5013816;27;19908;-69
2022/01/29 04:27:42;;;;;;;;;;;;;;;5.70;87.90;102062.41;5012666;27;19911;-70
2022/01/29 04:30:12;;;;;;;;;;;;;;;5.71;87.78;102048.38;5011127;27;20020;-68
2022/01/29 04:35:03;;;;;;;;;;;;;;;5.72;88.00;102036.06;5014454;27;19903;-69
2022/01/29 04:37:28;;;;;;;;;;;;;;;5.73;88.19;102036.00;5033038;27;19959;-65
2022/01/29 04:39:54;;;;;;;;;;;;;;;5.95;87.38;102032.31;5030857;27;20320;-70
2022/01/29 04:42:19;;;;;;;;;;;;;;;6.01;87.02;102042.59;5030363;27;20787;-70
2022/01/29 04:44:44;;;;;;;;;;;;;;;5.98;87.11;102040.13;5030814;27;20800;-70
2022/01/29 04:47:09;;;;;;;;;;;;;;;5.90;88.03;102036.97;5013813;27;20852;-69
2022/01/29 04:49:34;;;;;;;;;;;;;;;5.82;88.72;102035.56;5011425;27;20004;-70
2022/01/29 04:52:00;;;;;;;;;;;;;;;5.91;88.63;102038.66;5024081;27;20027;-69
2022/01/29 04:54:25;;;;;;;;;;;;;;;5.97;89.12;102038.38;5023474;27;20012;-69
2022/01/29 04:56:50;;;;;;;;;;;;;;;5.95;88.88;102029.69;5013988;27;20323;-66
2022/01/29 04:59:15;;;;;;;;;;;;;;;5.90;89.76;102031.72;5029627;27;20829;-69
2022/01/29 05:01:40;;;;;;;;;;;;;;;6.05;89.20;102041.50;5029589;27;20656;-67
2022/01/29 05:04:06;;;;;;;;;;;;;;;5.93;89.72;102039.44;5012283;27;20623;-69
2022/01/29 05:06:31;;;;;;;;;;;;;;;5.84;90.67;102030.25;5011270;27;20723;-68
2022/01/29 05:08:56;;;;;;;;;;;;;;;5.72;91.73;102030.81;5010311;27;20871;-69
2022/01/29 05:11:21;;;;;;;;;;;;;;;5.75;92.04;102035.91;4994600;27;20016;-70
2022/01/29 05:13:47;;;;;;;;;;;;;;;5.74;92.51;102037.72;5030676;27;19931;-68
2022/01/29 05:27:07;;;;;;;;;;;;;;;5.70;94.26;102025.66;5052036;27;19930;-67
2022/01/29 05:29:32;;;;;;;;;;;;;;;5.71;94.00;102026.47;5051617;27;19913;-71
2022/01/29 05:32:01;;;;;;;;;;;;;;;5.77;94.32;102016.53;5013042;27;19923;-67
2022/01/29 05:34:27;;;;;;;;;;;;;;;5.84;94.14;102017.94;5014990;27;20766;-67
2022/01/29 05:36:53;;;;;;;;;;;;;;;5.80;93.78;102013.75;5032244;27;19917;-68
2022/01/29 05:39:19;;;;;;;;;;;;;;;5.74;94.05;102019.31;5049757;27;19903;-69
2022/01/29 05:41:44;;;;;;;;;;;;;;;5.77;94.35;102010.44;4997757;27;19912;-71
2022/01/29 05:44:09;;;;;;;;;;;;;;;5.81;93.64;102018.09;5032460;27;20322;-70
2022/01/29 05:46:34;;;;;;;;;;;;;;;5.76;94.35;101999.06;4993957;27;20845;-70
2022/01/29 05:49:00;;;;;;;;;;;;;;;5.70;94.49;102002.00;5035595;27;20889;-69
2022/01/29 05:51:29;;;;;;;;;;;;;;;5.66;94.90;101997.81;5040078;27;20539;-70
2022/01/29 05:53:54;;;;;;;;;;;;;;;5.64;94.87;101990.03;5009698;27;20599;-68
2022/01/29 05:56:20;;;;;;;;;;;;;;;5.73;94.80;101993.97;5010787;27;19903;-68
2022/01/29 05:58:45;;;;;;;;;;;;;;;5.73;94.98;101988.72;5030905;27;19959;-68
2022/01/29 06:01:10;;;;;;;;;;;;;;;5.87;94.96;101989.84;5026461;27;20012;-68
2022/01/29 06:03:35;;;;;;;;;;;;;;;5.80;94.64;101991.91;5029211;27;19918;-68
2022/01/29 06:06:00;;;;;;;;;;;;;;;5.78;94.73;101984.09;5029836;27;19908;-68
2022/01/29 06:08:26;;;;;;;;;;;;;;;5.76;94.92;101988.56;5028105;27;19907;-67
2022/01/29 06:10:51;;;;;;;;;;;;;;;5.77;95.54;101990.28;5028692;27;19923;-66
2022/01/29 06:13:16;;;;;;;;;;;;;;;5.72;95.31;101981.75;5027351;27;20918;-67
2022/01/29 06:15:43;;;;;;;;;;;;;;;5.72;95.63;101984.38;5028816;27;20491;-67
2022/01/29 06:18:13;;;;;;;;;;;;;;;5.91;95.38;101971.22;5026550;27;20179;-69
2022/01/29 06:20:38;;;;;;;;;;;;;;;5.83;95.24;101979.47;5029660;27;19907;-67
2022/01/29 06:23:04;;;;;;;;;;;;;;;5.82;95.51;101969.91;5015356;27;20438;-71
2022/01/29 06:25:29;;;;;;;;;;;;;;;5.76;94.89;101972.81;5029608;27;20222;-70
2022/01/29 06:27:54;;;;;;;;;;;;;;;5.74;95.34;101974.66;5013511;27;20302;-70
2022/01/29 06:30:19;;;;;;;;;;;;;;;5.83;95.60;101971.56;5030400;27;19911;-69
2022/01/29 06:32:45;;;;;;;;;;;;;;;5.89;95.31;101973.06;5049321;27;20596;-68
2022/01/29 06:35:10;;;;;;;;;;;;;;;5.82;95.40;101972.53;5031861;27;19959;-67
2022/01/29 06:37:35;;;;;;;;;;;;;;;5.74;95.99;101963.28;5031112;27;20264;-70
2022/01/29 06:40:00;;;;;;;;;;;;;;;5.79;96.02;101950.81;5032732;27;20123;-70
2022/01/29 06:42:26;;;;;;;;;;;;;;;5.83;95.63;101953.19;5053260;27;20086;-70
2022/01/29 06:44:51;;;;;;;;;;;;;;;5.95;94.95;101948.25;5032829;27;19918;-70
2022/01/29 06:47:16;;;;;;;;;;;;;;;5.88;94.77;101939.84;5034089;27;19909;-69
2022/01/29 06:49:41;;;;;;;;;;;;;;;6.04;94.71;101942.56;5051410;27;19911;-69
2022/01/29 06:52:06;;;;;;;;;;;;;;;5.94;94.52;101941.31;5022495;27;19934;-69
2022/01/29 06:54:32;;;;;;;;;;;;;;;6.10;93.43;101944.88;5037320;27;19976;-67
2022/01/29 06:56:57;;;;;;;;;;;;;;;6.03;94.00;101955.78;5037484;27;20487;-67
2022/01/29 06:59:22;;;;;;;;;;;;;;;5.99;93.55;101947.19;5029030;27;20361;-68
2022/01/29 07:01:47;;;;;;;;;;;;;;;6.12;93.32;101940.41;5016475;28;20250;-70
2022/01/29 07:04:13;;;;;;;;;;;;;;;6.06;93.49;101940.72;5026241;28;20385;-69
2022/01/29 07:06:38;;;;;;;;;;;;;;;5.97;93.81;101949.03;5027993;28;20589;-68
2022/01/29 07:09:03;;;;;;;;;;;;;;;5.93;94.18;101942.22;5008100;28;20029;-71
2022/01/29 07:11:28;;;;;;;;;;;;;;;5.96;94.34;101942.06;5022736;28;19924;-67
2022/01/29 07:14:02;;;;;;;;;;;;;;;6.03;94.39;101932.97;5011888;28;19907;-66
2022/01/29 07:16:27;;;;;;;;;;;;;;;6.06;93.67;101932.81;5029188;28;19907;-68
2022/01/29 07:18:53;;;;;;;;;;;;;;;6.04;93.60;101933.84;5000189;27;20568;-67
2022/01/29 07:21:18;;;;;;;;;;;;;;;6.11;93.50;101940.50;5041980;27;19919;-70
2022/01/29 07:23:43;;;;;;;;;;;;;;;6.14;93.18;101933.28;5011545;27;19908;-69
2022/01/29 07:26:09;;;;;;;;;;;;;;;6.21;92.61;101931.19;4997389;27;19963;-70
2022/01/29 07:28:34;;;;;;;;;;;;;;;6.25;92.52;101929.28;5038980;27;19935;-66
2022/01/29 07:30:59;;;;;;;;;;;;;;;6.23;91.71;101929.31;5033879;27;20518;-67
2022/01/29 07:33:24;;;;;;;;;;;;;;;6.18;92.28;101919.06;5033108;27;20004;-67
2022/01/29 07:35:50;;;;;;;;;;;;;;;6.21;92.27;101919.84;5032407;27;20030;-69
2022/01/29 07:38:15;;;;;;;;;;;;;;;6.23;91.97;101917.97;5031320;27;19912;-70
2022/01/29 07:40:40;;;;;;;;;;;;;;;6.43;91.21;101912.53;5033147;27;19911;-68
2022/01/29 07:43:05;;;;;;;;;;;;;;;6.41;91.07;101917.00;5052512;27;20000;-70
2022/01/29 07:45:30;;;;;;;;;;;;;;;6.44;90.92;101911.59;5034026;27;19934;-69
2022/01/29 07:47:56;;;;;;;;;;;;;;;6.51;90.65;101912.97;5033275;27;19912;-68
2022/01/29 07:50:21;;;;;;;;;;;;;;;6.47;90.71;101918.47;5034125;27;20287;-68
2022/01/29 07:52:46;;;;;;;;;;;;;;;6.56;90.34;101915.38;5046076;27;20225;-69
2022/01/29 07:55:11;;;;;;;;;;;;;;;6.50;89.43;101921.78;5005934;27;19911;-69
2022/01/29 07:57:37;;;;;;;;;;;;;;;6.42;90.05;101918.72;5018880;27;20893;-69
2022/01/29 08:00:03;;;;;;;;;;;;;;;6.49;89.97;101914.84;5015061;27;19956;-68
2022/01/29 08:02:28;;;;;;;;;;;;;;;6.46;90.11;101922.88;4997236;27;19957;-66
2022/01/29 08:04:53;;;;;;;;;;;;;;;6.57;89.93;101921.47;5017533;27;19907;-69
2022/01/29 08:07:18;;;;;;;;;;;;;;;6.49;89.83;101917.47;5026178;27;20020;-69
2022/01/29 08:09:43;;;;;;;;;;;;;;;6.52;90.24;101919.91;5027452;27;20062;-69
2022/01/29 08:12:09;;;;;;;;;;;;;;;6.67;89.57;101914.75;5013527;27;20213;-69
2022/01/29 08:14:34;;;;;;;;;;;;;;;6.66;89.51;101911.31;5034508;27;19997;-70
2022/01/29 08:17:00;;;;;;;;;;;;;;;6.60;89.56;101922.16;5034838;27;19907;-70
2022/01/29 08:19:25;;;;;;;;;;;;;;;6.57;89.79;101916.19;5018444;27;19968;-70
2022/01/29 08:21:50;;;;;;;;;;;;;;;6.55;89.99;101910.19;5036222;27;19964;-67
2022/01/29 08:24:15;;;;;;;;;;;;;;;6.62;89.55;101914.19;5047436;27;20796;-68
2022/01/29 08:26:41;;;;;;;;;;;;;;;6.69;89.31;101905.88;5056170;27;20768;-68
2022/01/29 08:29:06;;;;;;;;;;;;;;;6.60;89.73;101911.63;5036648;27;20617;-68
2022/01/29 08:31:32;;;;;;;;;;;;;;;6.67;89.59;101917.41;5018695;27;19919;-68
2022/01/29 08:33:57;;;;;;;;;;;;;;;6.90;88.96;101915.34;5035469;27;20792;-70
2022/01/29 08:36:23;;;;;;;;;;;;;;;6.81;88.74;101914.91;5029906;27;19911;-68
2022/01/29 08:38:48;;;;;;;;;;;;;;;6.78;88.99;101907.19;5053696;27;19907;-66
2022/01/29 08:41:13;;;;;;;;;;;;;;;6.87;88.65;101904.03;5018145;27;19911;-69
2022/01/29 08:43:38;;;;;;;;;;;;;;;7.04;88.22;101895.19;5034213;27;20401;-68
2022/01/29 08:46:04;;;;;;;;;;;;;;;6.92;88.43;101893.22;5038130;27;20391;-71
2022/01/29 08:48:29;;;;;;;;;;;;;;;6.91;88.78;101899.47;5053092;27;20127;-68
2022/01/29 08:50:54;;;;;;;;;;;;;;;7.01;88.31;101899.78;5020579;27;19926;-68
2022/01/29 08:53:20;;;;;;;;;;;;;;;6.95;88.52;101895.72;5035848;27;19963;-68
2022/01/29 08:55:45;;;;;;;;;;;;;;;6.98;88.26;101886.78;5043574;27;20475;-68
2022/01/29 08:58:10;;;;;;;;;;;;;;;7.04;87.62;101894.34;5037601;27;19911;-69
2022/01/29 09:00:36;;;;;;;;;;;;;;;6.97;88.07;101893.84;5047901;27;20276;-69
2022/01/29 09:03:01;;;;;;;;;;;;;;;7.11;87.83;101884.34;5056208;27;20000;-69
2022/01/29 09:05:26;;;;;;;;;;;;;;;7.07;87.79;101886.28;5056816;27;20836;-69
2022/01/29 09:07:52;;;;;;;;;;;;;;;7.08;87.84;101885.34;5011693;27;19920;-69
2022/01/29 09:10:17;;;;;;;;;;;;;;;7.06;88.20;101881.94;5038528;27;20935;-69
2022/01/29 09:12:42;;;;;;;;;;;;;;;7.06;88.29;101866.16;5044164;27;20923;-68
2022/01/29 09:15:08;;;;;;;;;;;;;;;7.09;88.08;101865.97;5061265;27;19975;-68
2022/01/29 09:17:35;;;;;;;;;;;;;;;7.11;88.26;101853.59;5045414;27;20027;-69
2022/01/29 09:20:00;;;;;;;;;;;;;;;7.18;87.99;101854.94;5066087;27;20344;-69
2022/01/29 09:22:25;;;;;;;;;;;;;;;7.27;87.88;101858.81;5032593;27;19903;-68
2022/01/29 09:24:50;;;;;;;;;;;;;;;7.20;86.94;101853.06;5051241;27;19911;-67
2022/01/29 09:27:15;;;;;;;;;;;;;;;7.12;87.57;101844.78;5051031;27;19907;-70
2022/01/29 09:29:41;;;;;;;;;;;;;;;7.39;86.77;101836.22;5027454;27;19903;-68
2022/01/29 09:32:07;;;;;;;;;;;;;;;7.42;86.64;101849.22;5022806;27;20052;-68
2022/01/29 09:34:32;;;;;;;;;;;;;;;7.31;86.64;101831.38;5041202;27;19910;-69
2022/01/29 09:36:57;;;;;;;;;;;;;;;7.33;87.15;101837.44;5043172;27;20484;-67
2022/01/29 09:39:22;;;;;;;;;;;;;;;7.36;86.73;101831.97;5042402;27;19907;-69
2022/01/29 09:41:48;;;;;;;;;;;;;;;7.35;86.85;101840.81;5061335;27;20187;-69
2022/01/29 09:44:13;;;;;;;;;;;;;;;7.46;86.59;101837.56;5042639;27;20036;-69
2022/01/29 09:46:39;;;;;;;;;;;;;;;7.50;86.77;101848.75;5055424;27;19923;-70
2022/01/29 09:49:04;;;;;;;;;;;;;;;7.49;86.48;101839.16;5041413;27;19918;-70
2022/01/29 09:51:30;;;;;;;;;;;;;;;7.54;86.21;101824.78;5023178;27;20125;-68
2022/01/29 09:53:55;;;;;;;;;;;;;;;7.64;85.90;101834.78;5048650;27;19918;-68
2022/01/29 09:56:20;;;;;;;;;;;;;;;7.79;85.32;101838.28;5050125;27;20020;-69
2022/01/29 09:58:45;;;;;;;;;;;;;;;7.87;84.95;101842.16;5053261;27;19975;-67
2022/01/29 10:01:11;;;;;;;;;;;;;;;7.77;84.61;101835.75;5012016;27;19911;-67
2022/01/29 10:03:36;;;;;;;;;;;;;;;7.80;85.10;101830.28;5021151;27;21017;-69
2022/01/29 10:06:01;;;;;;;;;;;;;;;7.75;84.75;101842.88;5037411;27;20424;-69
2022/01/29 10:08:27;;;;;;;;;;;;;;;7.85;84.88;101838.75;5017493;27;20392;-68
2022/01/29 10:10:56;;;;;;;;;;;;;;;7.89;84.45;101844.69;5039052;27;19912;-69
2022/01/29 10:13:26;;;;;;;;;;;;;;;7.82;85.07;101838.94;5037985;27;20041;-70
2022/01/29 10:15:51;;;;;;;;;;;;;;;7.82;84.71;101838.94;5003659;27;19911;-68
2022/01/29 10:18:23;;;;;;;;;;;;;;;7.90;83.98;101831.44;5001207;27;20342;-69
2022/01/29 10:20:48;;;;;;;;;;;;;;;8.03;84.00;101843.88;5028692;27;19915;-70
2022/01/29 10:23:14;;;;;;;;;;;;;;;7.97;83.98;101836.34;5039536;27;19903;-70
2022/01/29 10:25:43;;;;;;;;;;;;;;;7.97;84.31;101844.25;5058611;27;19903;-68
2022/01/29 10:28:15;;;;;;;;;;;;;;;8.04;84.03;101842.94;5057776;27;19911;-69
2022/01/29 10:30:49;;;;;;;;;;;;;;;7.97;83.92;101831.91;5039958;27;19930;-69
2022/01/29 10:33:22;;;;;;;;;;;;;;;8.08;84.39;101829.47;5053788;27;19975;-68
2022/01/29 10:35:48;;;;;;;;;;;;;;;8.11;83.54;101815.25;5039874;27;20196;-69
2022/01/29 10:38:13;;;;;;;;;;;;;;;8.14;83.88;101816.88;5031647;27;19975;-70
2022/01/29 10:40:39;;;;;;;;;;;;;;;8.13;83.70;101810.72;5020333;27;19973;-70
2022/01/29 10:43:05;;;;;;;;;;;;;;;8.20;83.34;101809.41;5060867;27;19903;-68
2022/01/29 10:45:34;;;;;;;;;;;;;;;8.27;83.56;101798.50;5040690;27;19919;-68
2022/01/29 10:47:59;;;;;;;;;;;;;;;8.31;82.97;101802.63;5038177;27;19975;-70
2022/01/29 10:50:24;;;;;;;;;;;;;;;8.17;83.06;101787.66;5026354;27;19919;-69
2022/01/29 10:52:50;;;;;;;;;;;;;;;8.27;83.64;101778.22;5042521;27;19923;-66
2022/01/29 10:55:15;;;;;;;;;;;;;;;8.31;82.69;101776.25;5006133;27;20331;-71
2022/01/29 10:57:42;;;;;;;;;;;;;;;8.28;82.95;101771.16;5030968;27;19907;-68
2022/01/29 11:00:08;;;;;;;;;;;;;;;8.35;83.58;101761.94;5041328;27;19974;-68
2022/01/29 11:02:33;;;;;;;;;;;;;;;8.48;83.11;101762.88;5037193;27;19914;-69
2022/01/29 11:05:04;;;;;;;;;;;;;;;8.51;82.40;101767.94;5055619;27;20784;-70
2022/01/29 11:07:30;;;;;;;;;;;;;;;8.51;82.38;101767.94;5030139;27;20012;-70
2022/01/29 11:09:55;;;;;;;;;;;;;;;8.47;81.77;101770.88;5045232;27;21186;-69
2022/01/29 11:12:21;;;;;;;;;;;;;;;8.34;82.29;101778.69;5036073;27;19935;-70
2022/01/29 11:14:47;;;;;;;;;;;;;;;8.25;83.72;101772.22;5056299;27;20351;-69
2022/01/29 11:17:12;;;;;;;;;;;;;;;8.37;82.93;101760.88;5025178;27;19944;-68
2022/01/29 11:19:38;;;;;;;;;;;;;;;8.39;83.08;101752.88;5051939;27;19904;-69
2022/01/29 11:22:04;;;;;;;;;;;;;;;8.38;83.01;101751.19;5031113;27;20004;-67
2022/01/29 11:24:29;;;;;;;;;;;;;;;8.35;83.69;101748.75;5033715;27;19919;-69
2022/01/29 11:26:55;;;;;;;;;;;;;;;8.36;83.26;101750.44;5047033;27;20300;-69
2022/01/29 11:29:28;;;;;;;;;;;;;;;8.30;84.29;101748.19;5023447;27;19911;-70
2022/01/29 11:32:12;;;;;;;;;;;;;;;8.36;84.51;101734.59;5032415;27;20350;-67
2022/01/29 11:35:10;;;;;;;;;;;;;;;8.42;84.62;101726.31;5043573;27;19949;-71
2022/01/29 11:37:45;;;;;;;;;;;;;;;8.39;84.79;101737.03;5002605;27;19911;-69
2022/01/29 11:40:17;;;;;;;;;;;;;;;8.36;85.65;101731.97;5055381;27;19915;-70
2022/01/29 11:43:03;;;;;;;;;;;;;;;8.35;85.71;101720.56;5039871;27;19915;-68
2022/01/29 11:45:57;;;;;;;;;;;;;;;8.41;86.04;101714.06;5040615;27;19928;-69
2022/01/29 11:48:37;;;;;;;;;;;;;;;8.31;86.85;101718.25;5044121;27;19923;-69
2022/01/29 11:51:13;;;;;;;;;;;;;;;8.33;87.58;101703.16;5042635;27;19972;-68
2022/01/29 11:53:45;;;;;;;;;;;;;;;8.29;88.02;101699.88;5035161;27;19916;-68
2022/01/29 11:56:24;;;;;;;;;;;;;;;8.34;88.43;101702.22;5065428;27;19922;-69
2022/01/29 11:58:50;;;;;;;;;;;;;;;8.32;88.50;101709.38;5024393;27;19936;-68
2022/01/29 12:01:29;;;;;;;;;;;;;;;8.32;88.77;101709.38;5015485;27;19908;-70
2022/01/29 12:03:54;;;;;;;;;;;;;;;8.37;88.46;101710.75;5035902;27;20365;-68
2022/01/29 12:06:33;;;;;;;;;;;;;;;8.35;88.35;101707.41;5044213;27;20031;-68
2022/01/29 12:09:04;;;;;;;;;;;;;;;8.46;88.20;101696.19;5040868;27;19961;-69
2022/01/29 12:11:29;;;;;;;;;;;;;;;8.51;88.22;101693.25;5043595;27;19945;-70
2022/01/29 12:14:13;;;;;;;;;;;;;;;8.43;87.57;101694.56;5038501;27;19915;-69
2022/01/29 12:17:11;;;;;;;;;;;;;;;8.56;87.10;101684.09;5060587;27;19951;-69
2022/01/29 12:19:40;;;;;;;;;;;;;;;8.76;85.96;101674.84;5013138;27;20008;-67
2022/01/29 12:22:12;;;;;;;;;;;;;;;8.71;86.59;101684.84;5062219;27;20011;-69
2022/01/29 12:24:37;;;;;;;;;;;;;;;8.72;86.14;101659.31;5041156;27;20605;-70
2022/01/29 12:27:03;;;;;;;;;;;;;;;8.67;85.84;101653.50;5027624;27;19903;-66
2022/01/29 12:29:28;;;;;;;;;;;;;;;8.85;85.22;101649.63;5040752;27;19923;-68
2022/01/29 12:31:56;;;;;;;;;;;;;;;8.97;85.19;101642.69;5041944;27;20141;-68
2022/01/29 12:34:21;;;;;;;;;;;;;;;9.09;84.11;101649.78;5038079;27;20981;-67
2022/01/29 12:36:46;;;;;;;;;;;;;;;8.99;83.93;101639.94;5044950;27;19940;-69
2022/01/29 12:39:20;;;;;;;;;;;;;;;8.90;83.75;101631.69;5026360;27;20018;-70
2022/01/29 12:41:46;;;;;;;;;;;;;;;8.93;83.33;101636.75;5035784;27;19925;-66
2022/01/29 12:44:18;;;;;;;;;;;;;;;9.04;83.05;101627.25;5040234;27;19907;-70
2022/01/29 12:46:43;;;;;;;;;;;;;;;9.04;82.57;101627.25;5016950;27;19971;-67
2022/01/29 12:49:12;;;;;;;;;;;;;;;9.07;82.87;101625.25;5034325;27;20430;-70
2022/01/29 12:51:51;;;;;;;;;;;;;;;9.13;80.96;101613.44;5043090;27;19967;-70
2022/01/29 12:54:16;;;;;;;;;;;;;;;9.32;80.83;101609.50;5022676;27;19923;-68
2022/01/29 12:56:41;;;;;;;;;;;;;;;9.24;81.05;101605.63;5055932;27;19910;-69